Time;durP1;ratioP1;P1;durP2;ratioP2;P2;SDS_P1;SDS_P2;PMS_P1;PMS_P2;Temp;Humidity;BMP_temperature;BMP_pressure;BME280_temperature;BME280_humidity;BME280_pressure;Samples;Min_cycle;Max_cycle;Signal;HPM_P1;HPM_P2
2022/04/09 00:01:27;;;;;;;;;;;;;;;;;;5093927;28;19908;-53
2022/04/09 00:03:54;;;;;;;;;;;;;;;;;;5093846;28;19912;-51
2022/04/09 00:06:21;;;;;;;;;;;;;;;;;;5093794;28;20359;-57
2022/04/09 00:08:50;;;;;;;;;;;;;;;;;;5093840;28;20243;-51
2022/04/09 00:11:16;;;;;;;;;;;;;;;;;;5093928;28;20351;-54
2022/04/09 00:13:43;;;;;;;;;;;;;;;;;;5094299;28;20362;-53
2022/04/09 00:16:09;;;;;;;;;;;;;;;;;;5093934;28;20265;-53
2022/04/09 00:21:30;;;;;;;;;;;;;;;;;;5094376;28;19957;-53
2022/04/09 00:23:57;;;;;;;;;;;;;;;;;;5093466;28;19908;-45
2022/04/09 00:26:23;;;;;;;;;;;;;;;;;;5093728;28;19948;-44
2022/04/09 00:28:50;;;;;;;;;;;;;;;;;;5093664;28;19908;-46
2022/04/09 00:31:17;;;;;;;;;;;;;;;;;;5093461;28;19915;-55
2022/04/09 00:33:43;;;;;;;;;;;;;;;;;;5093530;28;19969;-44
2022/04/09 00:36:10;;;;;;;;;;;;;;;;;;5093873;28;20316;-50
2022/04/09 00:38:37;;;;;;;;;;;;;;;;;;5093223;28;19908;-46
2022/04/09 00:41:03;;;;;;;;;;;;;;;;;;5093870;28;19977;-47
2022/04/09 00:43:30;;;;;;;;;;;;;;;;;;5093522;28;20335;-52
2022/04/09 00:45:56;;;;;;;;;;;;;;;;;;5092978;28;19916;-56
2022/04/09 00:48:23;;;;;;;;;;;;;;;;;;5093642;28;20354;-57
2022/04/09 00:50:49;;;;;;;;;;;;;;;;;;5093278;28;19908;-49
2022/04/09 00:53:16;;;;;;;;;;;;;;;;;;5093143;28;20003;-46
2022/04/09 00:58:27;;;;;;;;;;;;;;;;;;5092455;28;20354;-56
2022/04/09 01:00:54;;;;;;;;;;;;;;;;;;5092376;28;19915;-56
2022/04/09 01:03:20;;;;;;;;;;;;;;;;;;5092597;28;19931;-57
2022/04/09 01:05:48;;;;;;;;;;;;;;;;;;5092481;28;19916;-58
2022/04/09 01:08:14;;;;;;;;;;;;;;;;;;5105751;28;19914;-56
2022/04/09 01:10:41;;;;;;;;;;;;;;;;;;5113525;28;19947;-43
2022/04/09 01:13:07;;;;;;;;;;;;;;;;;;5112980;28;19916;-50
2022/04/09 01:15:34;;;;;;;;;;;;;;;;;;5112812;28;19912;-48
2022/04/09 01:18:00;;;;;;;;;;;;;;;;;;5112635;28;20269;-55
2022/04/09 01:20:29;;;;;;;;;;;;;;;;;;5112899;28;19981;-51
2022/04/09 01:22:55;;;;;;;;;;;;;;;;;;5111529;28;19916;-52
2022/04/09 01:25:22;;;;;;;;;;;;;;;;;;5112346;28;19952;-44
2022/04/09 01:27:48;;;;;;;;;;;;;;;;;;5113020;28;19907;-58
2022/04/09 01:30:15;;;;;;;;;;;;;;;;;;5112659;28;20000;-49
2022/04/09 01:32:41;;;;;;;;;;;;;;;;;;5112849;28;20106;-54
2022/04/09 01:35:08;;;;;;;;;;;;;;;;;;5112643;28;19919;-55
2022/04/09 01:37:34;;;;;;;;;;;;;;;;;;5112333;28;19908;-55
2022/04/09 01:40:01;;;;;;;;;;;;;;;;;;5112369;28;19908;-50
2022/04/09 01:42:27;;;;;;;;;;;;;;;;;;5112891;28;20088;-48
2022/04/09 01:44:54;;;;;;;;;;;;;;;;;;5112724;28;19915;-45
2022/04/09 01:47:20;;;;;;;;;;;;;;;;;;5112946;28;19908;-54
2022/04/09 01:49:47;;;;;;;;;;;;;;;;;;5112803;28;19907;-50
2022/04/09 01:52:13;;;;;;;;;;;;;;;;;;5112909;28;19908;-42
2022/04/09 01:54:40;;;;;;;;;;;;;;;;;;5112666;28;20003;-55
2022/04/09 01:57:06;;;;;;;;;;;;;;;;;;5112364;28;19973;-52
2022/04/09 01:59:33;;;;;;;;;;;;;;;;;;5112269;28;19912;-44
2022/04/09 02:01:59;;;;;;;;;;;;;;;;;;5112171;28;20328;-53
2022/04/09 02:04:26;;;;;;;;;;;;;;;;;;5110574;28;19955;-53
2022/04/09 02:06:52;;;;;;;;;;;;;;;;;;5112728;28;19947;-52
2022/04/09 02:09:19;;;;;;;;;;;;;;;;;;5112469;28;19915;-54
2022/04/09 02:11:45;;;;;;;;;;;;;;;;;;5115262;28;20251;-53
2022/04/09 02:14:12;;;;;;;;;;;;;;;;;;5116075;28;19915;-50
2022/04/09 02:16:39;;;;;;;;;;;;;;;;;;5116437;28;19919;-49
2022/04/09 02:19:05;;;;;;;;;;;;;;;;;;5116497;28;20359;-52
2022/04/09 02:21:32;;;;;;;;;;;;;;;;;;5116362;28;20367;-50
2022/04/09 02:23:58;;;;;;;;;;;;;;;;;;5116470;28;19951;-56
2022/04/09 02:26:25;;;;;;;;;;;;;;;;;;5116719;28;19911;-50
2022/04/09 02:28:52;;;;;;;;;;;;;;;;;;5116307;28;19908;-55
2022/04/09 02:31:20;;;;;;;;;;;;;;;;;;5115984;28;19912;-53
2022/04/09 02:33:46;;;;;;;;;;;;;;;;;;5116222;28;19966;-51
2022/04/09 02:36:13;;;;;;;;;;;;;;;;;;5116212;28;19907;-48
2022/04/09 02:38:39;;;;;;;;;;;;;;;;;;5115896;28;19908;-46
2022/04/09 02:41:08;;;;;;;;;;;;;;;;;;5116284;28;19968;-46
2022/04/09 02:43:34;;;;;;;;;;;;;;;;;;5116300;28;19908;-54
2022/04/09 02:46:00;;;;;;;;;;;;;;;;;;5116069;28;19915;-49
2022/04/09 02:48:27;;;;;;;;;;;;;;;;;;5116451;28;19915;-52
2022/04/09 02:50:54;;;;;;;;;;;;;;;;;;5116631;28;19907;-48
2022/04/09 02:53:20;;;;;;;;;;;;;;;;;;5115698;28;19916;-51
2022/04/09 02:55:47;;;;;;;;;;;;;;;;;;5114972;28;20406;-45
2022/04/09 02:58:13;;;;;;;;;;;;;;;;;;5115622;28;19908;-50
2022/04/09 03:00:40;;;;;;;;;;;;;;;;;;5115910;28;19915;-55
2022/04/09 03:03:07;;;;;;;;;;;;;;;;;;5115941;28;19908;-54
2022/04/09 03:05:34;;;;;;;;;;;;;;;;;;5114460;28;19920;-51
2022/04/09 03:08:00;;;;;;;;;;;;;;;;;;5112927;28;19907;-43
2022/04/09 03:10:27;;;;;;;;;;;;;;;;;;5113883;28;19915;-48
2022/04/09 03:12:53;;;;;;;;;;;;;;;;;;5113525;28;19912;-47
2022/04/09 03:15:20;;;;;;;;;;;;;;;;;;5114562;28;20261;-43
2022/04/09 03:17:46;;;;;;;;;;;;;;;;;;5113353;28;19908;-55
2022/04/09 03:20:12;;;;;;;;;;;;;;;;;;5113548;28;19973;-53
2022/04/09 03:22:39;;;;;;;;;;;;;;;;;;5113852;28;19908;-52
2022/04/09 03:25:05;;;;;;;;;;;;;;;;;;5114543;28;19916;-49
2022/04/09 03:27:32;;;;;;;;;;;;;;;;;;5114588;28;19912;-51
2022/04/09 03:29:58;;;;;;;;;;;;;;;;;;5090664;28;20366;-47
2022/04/09 03:32:25;;;;;;;;;;;;;;;;;;5090547;28;20192;-51
2022/04/09 03:34:53;;;;;;;;;;;;;;;;;;5091105;28;19990;-54
2022/04/09 03:37:19;;;;;;;;;;;;;;;;;;5088751;28;20003;-53
2022/04/09 03:39:46;;;;;;;;;;;;;;;;;;5091408;28;20267;-56
2022/04/09 03:42:12;;;;;;;;;;;;;;;;;;5087278;28;19908;-43
2022/04/09 03:44:39;;;;;;;;;;;;;;;;;;5090387;28;20065;-55
2022/04/09 03:47:05;;;;;;;;;;;;;;;;;;5094504;28;19915;-46
2022/04/09 03:49:32;;;;;;;;;;;;;;;;;;5089673;28;20247;-47
2022/04/09 03:51:58;;;;;;;;;;;;;;;;;;5087144;28;19918;-53
2022/04/09 03:54:25;;;;;;;;;;;;;;;;;;5091137;28;19916;-52
2022/04/09 03:56:52;;;;;;;;;;;;;;;;;;5091365;28;19908;-54
2022/04/09 03:59:18;;;;;;;;;;;;;;;;;;5089149;28;20285;-54
2022/04/09 04:01:47;;;;;;;;;;;;;;;;;;5085138;28;19934;-52
2022/04/09 04:04:13;;;;;;;;;;;;;;;;;;4959648;28;3695858;-39
2022/04/09 04:06:42;;;;;;;;;;;;;;;;;;5092740;28;19908;-49
2022/04/09 04:09:09;;;;;;;;;;;;;;;;;;5091634;28;19912;-48
2022/04/09 04:11:35;;;;;;;;;;;;;;;;;;5089954;28;19908;-47
2022/04/09 04:14:03;;;;;;;;;;;;;;;;;;5091242;28;20344;-35
2022/04/09 04:16:30;;;;;;;;;;;;;;;;;;5092675;28;19908;-45
2022/04/09 04:18:56;;;;;;;;;;;;;;;;;;5092440;28;19908;-51
2022/04/09 04:21:23;;;;;;;;;;;;;;;;;;5091014;28;19962;-39
2022/04/09 04:23:49;;;;;;;;;;;;;;;;;;5092427;28;19969;-39
2022/04/09 04:26:16;;;;;;;;;;;;;;;;;;5092460;28;19951;-49
2022/04/09 04:28:42;;;;;;;;;;;;;;;;;;5092608;28;19912;-38
2022/04/09 04:31:09;;;;;;;;;;;;;;;;;;5091423;28;19915;-47
2022/04/09 04:33:36;;;;;;;;;;;;;;;;;;5087786;28;19938;-44
2022/04/09 04:36:04;;;;;;;;;;;;;;;;;;5092065;28;19938;-50
2022/04/09 04:38:30;;;;;;;;;;;;;;;;;;5091841;28;19908;-45
2022/04/09 04:40:57;;;;;;;;;;;;;;;;;;5091433;28;19912;-50
2022/04/09 04:43:24;;;;;;;;;;;;;;;;;;5089567;28;20282;-56
2022/04/09 04:45:50;;;;;;;;;;;;;;;;;;5093930;28;20274;-50
2022/04/09 04:48:17;;;;;;;;;;;;;;;;;;5093358;28;20248;-49
2022/04/09 04:50:43;;;;;;;;;;;;;;;;;;5092754;28;19915;-54
2022/04/09 04:53:10;;;;;;;;;;;;;;;;;;5093133;28;19923;-54
2022/04/09 04:55:36;;;;;;;;;;;;;;;;;;5092953;28;20374;-51
2022/04/09 04:58:03;;;;;;;;;;;;;;;;;;5092109;28;20012;-51
2022/04/09 05:00:29;;;;;;;;;;;;;;;;;;5093226;28;19908;-51
2022/04/09 05:02:56;;;;;;;;;;;;;;;;;;5093118;28;19916;-54
2022/04/09 05:05:22;;;;;;;;;;;;;;;;;;5093156;28;19920;-54
2022/04/09 05:07:49;;;;;;;;;;;;;;;;;;5093072;28;19919;-56
2022/04/09 05:10:15;;;;;;;;;;;;;;;;;;5091680;28;20323;-54
2022/04/09 05:12:42;;;;;;;;;;;;;;;;;;5092649;28;20285;-52
2022/04/09 05:15:08;;;;;;;;;;;;;;;;;;5092330;28;19989;-47
2022/04/09 05:17:35;;;;;;;;;;;;;;;;;;5092246;28;20372;-52
2022/04/09 05:20:04;;;;;;;;;;;;;;;;;;5092789;28;19952;-47
2022/04/09 05:22:30;;;;;;;;;;;;;;;;;;5091040;28;19995;-53
2022/04/09 05:24:57;;;;;;;;;;;;;;;;;;5093130;28;19915;-52
2022/04/09 05:27:23;;;;;;;;;;;;;;;;;;5091314;28;19908;-46
2022/04/09 05:29:50;;;;;;;;;;;;;;;;;;5092801;28;19904;-46
2022/04/09 05:32:17;;;;;;;;;;;;;;;;;;5092513;28;19908;-42
2022/04/09 05:34:43;;;;;;;;;;;;;;;;;;5092689;28;19997;-53
2022/04/09 05:37:10;;;;;;;;;;;;;;;;;;5093028;28;19912;-50
2022/04/09 05:39:36;;;;;;;;;;;;;;;;;;5092896;28;19908;-51
2022/04/09 05:42:03;;;;;;;;;;;;;;;;;;5092245;28;19947;-49
2022/04/09 05:44:30;;;;;;;;;;;;;;;;;;5092316;28;19912;-49
2022/04/09 05:46:56;;;;;;;;;;;;;;;;;;5092770;28;19908;-50
2022/04/09 05:49:22;;;;;;;;;;;;;;;;;;5092418;28;19908;-48
2022/04/09 05:51:49;;;;;;;;;;;;;;;;;;5092408;28;19912;-51
2022/04/09 05:54:15;;;;;;;;;;;;;;;;;;5092445;28;19916;-45
2022/04/09 05:56:42;;;;;;;;;;;;;;;;;;5092437;28;20356;-49
2022/04/09 05:59:08;;;;;;;;;;;;;;;;;;5092583;28;19908;-44
2022/04/09 06:01:35;;;;;;;;;;;;;;;;;;5092741;28;19908;-47
2022/04/09 06:04:01;;;;;;;;;;;;;;;;;;5087813;28;19959;-45
2022/04/09 06:06:28;;;;;;;;;;;;;;;;;;5092297;28;20003;-43
2022/04/09 06:08:54;;;;;;;;;;;;;;;;;;5091919;28;19908;-46
2022/04/09 06:11:21;;;;;;;;;;;;;;;;;;5091440;28;19913;-44
2022/04/09 06:13:47;;;;;;;;;;;;;;;;;;5090792;28;19924;-50
2022/04/09 06:16:14;;;;;;;;;;;;;;;;;;5091430;28;19924;-49
2022/04/09 06:18:41;;;;;;;;;;;;;;;;;;5092233;28;19915;-51
2022/04/09 06:21:07;;;;;;;;;;;;;;;;;;5091519;28;20205;-49
2022/04/09 06:23:34;;;;;;;;;;;;;;;;;;5092264;28;19908;-49
2022/04/09 06:26:00;;;;;;;;;;;;;;;;;;5091626;28;19909;-51
2022/04/09 06:28:27;;;;;;;;;;;;;;;;;;5092045;28;19908;-51
2022/04/09 06:30:53;;;;;;;;;;;;;;;;;;5092696;28;19912;-51
2022/04/09 06:33:23;;;;;;;;;;;;;;;;;;5091074;28;19920;-50
2022/04/09 06:35:50;;;;;;;;;;;;;;;;;;5092074;28;20385;-51
2022/04/09 06:38:16;;;;;;;;;;;;;;;;;;5092237;28;19928;-45
2022/04/09 06:40:43;;;;;;;;;;;;;;;;;;5092278;28;19908;-49
2022/04/09 06:43:09;;;;;;;;;;;;;;;;;;5092396;28;20075;-44
2022/04/09 06:45:36;;;;;;;;;;;;;;;;;;5092508;28;19961;-51
2022/04/09 06:48:02;;;;;;;;;;;;;;;;;;5092027;28;19947;-51
2022/04/09 06:50:29;;;;;;;;;;;;;;;;;;5091613;28;19912;-49
2022/04/09 06:52:55;;;;;;;;;;;;;;;;;;5091401;28;19984;-47
2022/04/09 06:55:22;;;;;;;;;;;;;;;;;;5092091;28;19915;-50
2022/04/09 06:57:48;;;;;;;;;;;;;;;;;;5094447;28;20004;-46
2022/04/09 07:00:15;;;;;;;;;;;;;;;;;;5095439;28;20053;-50
2022/04/09 07:02:41;;;;;;;;;;;;;;;;;;5095477;28;20019;-46
2022/04/09 07:05:08;;;;;;;;;;;;;;;;;;5095559;28;19995;-57
2022/04/09 07:07:34;;;;;;;;;;;;;;;;;;5094246;28;20346;-50
2022/04/09 07:10:01;;;;;;;;;;;;;;;;;;5094514;28;19908;-51
2022/04/09 07:12:27;;;;;;;;;;;;;;;;;;5095241;28;19943;-48
2022/04/09 07:14:53;;;;;;;;;;;;;;;;;;5095429;28;19916;-49
2022/04/09 07:17:20;;;;;;;;;;;;;;;;;;5095436;28;19935;-49
2022/04/09 07:19:47;;;;;;;;;;;;;;;;;;5094848;28;20321;-45
2022/04/09 07:22:13;;;;;;;;;;;;;;;;;;5094399;28;20280;-45
2022/04/09 07:24:40;;;;;;;;;;;;;;;;;;5095227;28;20204;-43
2022/04/09 07:27:07;;;;;;;;;;;;;;;;;;5094825;28;19954;-48
2022/04/09 07:29:33;;;;;;;;;;;;;;;;;;5095481;28;19949;-43
2022/04/09 07:32:00;;;;;;;;;;;;;;;;;;5095018;28;19909;-47
2022/04/09 07:34:27;;;;;;;;;;;;;;;;;;5094926;28;20363;-49
2022/04/09 07:36:53;;;;;;;;;;;;;;;;;;5094532;28;19915;-51
2022/04/09 07:39:20;;;;;;;;;;;;;;;;;;5095484;28;19931;-47
2022/04/09 07:41:46;;;;;;;;;;;;;;;;;;5094972;28;19926;-49
2022/04/09 07:44:13;;;;;;;;;;;;;;;;;;5090702;28;19908;-45
2022/04/09 07:46:40;;;;;;;;;;;;;;;;;;5094089;28;19912;-49
2022/04/09 07:49:06;;;;;;;;;;;;;;;;;;5094342;28;19914;-49
2022/04/09 07:51:32;;;;;;;;;;;;;;;;;;5094999;28;20331;-48
2022/04/09 07:53:59;;;;;;;;;;;;;;;;;;5094519;28;19959;-44
2022/04/09 07:56:25;;;;;;;;;;;;;;;;;;5094648;28;19908;-47
2022/04/09 07:58:52;;;;;;;;;;;;;;;;;;5094640;28;19908;-51
2022/04/09 08:01:18;;;;;;;;;;;;;;;;;;5093851;28;20297;-52
2022/04/09 08:03:45;;;;;;;;;;;;;;;;;;5094120;28;19924;-50
2022/04/09 08:06:11;;;;;;;;;;;;;;;;;;5093926;28;20006;-45
2022/04/09 08:08:38;;;;;;;;;;;;;;;;;;5092960;28;19915;-50
2022/04/09 08:11:05;;;;;;;;;;;;;;;;;;5094124;28;19909;-46
2022/04/09 08:13:31;;;;;;;;;;;;;;;;;;5093983;28;19927;-39
2022/04/09 08:15:58;;;;;;;;;;;;;;;;;;5093803;28;19919;-46
2022/04/09 08:18:24;;;;;;;;;;;;;;;;;;5094433;28;19916;-50
2022/04/09 08:20:51;;;;;;;;;;;;;;;;;;5094629;28;20287;-47
2022/04/09 08:23:17;;;;;;;;;;;;;;;;;;5094320;28;19954;-44
2022/04/09 08:25:44;;;;;;;;;;;;;;;;;;5094021;28;19919;-49
2022/04/09 08:28:10;;;;;;;;;;;;;;;;;;5093785;28;19908;-41
2022/04/09 08:30:39;;;;;;;;;;;;;;;;;;5093942;28;19914;-47
2022/04/09 08:33:07;;;;;;;;;;;;;;;;;;5093776;28;20014;-49
2022/04/09 08:35:33;;;;;;;;;;;;;;;;;;5093852;28;20006;-50
2022/04/09 08:38:00;;;;;;;;;;;;;;;;;;5093848;28;19984;-46
2022/04/09 08:40:26;;;;;;;;;;;;;;;;;;5093675;28;19944;-46
2022/04/09 08:42:53;;;;;;;;;;;;;;;;;;5093649;28;19908;-52
2022/04/09 08:45:19;;;;;;;;;;;;;;;;;;5093488;28;19950;-49
2022/04/09 08:47:46;;;;;;;;;;;;;;;;;;5093725;28;20363;-44
2022/04/09 08:50:12;;;;;;;;;;;;;;;;;;5093397;28;19961;-48
2022/04/09 08:52:39;;;;;;;;;;;;;;;;;;5093678;28;19934;-51
2022/04/09 08:55:05;;;;;;;;;;;;;;;;;;5093148;28;20007;-46
2022/04/09 08:57:32;;;;;;;;;;;;;;;;;;5093146;28;19944;-50
2022/04/09 08:59:58;;;;;;;;;;;;;;;;;;5093189;28;19922;-46
2022/04/09 09:02:26;;;;;;;;;;;;;;;;;;5093518;28;19991;-54
2022/04/09 09:04:52;;;;;;;;;;;;;;;;;;5093184;28;20349;-50
2022/04/09 09:07:20;;;;;;;;;;;;;;;;;;5092292;28;19919;-50
2022/04/09 09:09:46;;;;;;;;;;;;;;;;;;5093417;28;19908;-48
2022/04/09 09:12:14;;;;;;;;;;;;;;;;;;5092880;28;19946;-55
2022/04/09 09:14:41;;;;;;;;;;;;;;;;;;5092868;28;19948;-50
2022/04/09 09:17:07;;;;;;;;;;;;;;;;;;5092816;28;20320;-54
2022/04/09 09:19:34;;;;;;;;;;;;;;;;;;5093015;28;20343;-54
2022/04/09 09:22:05;;;;;;;;;;;;;;;;;;5092286;28;20231;-56
2022/04/09 09:24:32;;;;;;;;;;;;;;;;;;5093155;28;20407;-50
2022/04/09 09:26:59;;;;;;;;;;;;;;;;;;5093496;28;20397;-54
2022/04/09 09:29:27;;;;;;;;;;;;;;;;;;5092973;28;19908;-51
2022/04/09 09:31:54;;;;;;;;;;;;;;;;;;5092851;28;20273;-44
2022/04/09 09:34:20;;;;;;;;;;;;;;;;;;5091534;28;19947;-42
2022/04/09 09:36:47;;;;;;;;;;;;;;;;;;5093334;28;20363;-49
2022/04/09 09:39:13;;;;;;;;;;;;;;;;;;5093315;28;19912;-54
2022/04/09 09:41:40;;;;;;;;;;;;;;;;;;5093423;28;19984;-53
2022/04/09 09:44:06;;;;;;;;;;;;;;;;;;5089721;28;19987;-47
2022/04/09 09:46:33;;;;;;;;;;;;;;;;;;5091501;28;20347;-48
2022/04/09 09:48:59;;;;;;;;;;;;;;;;;;5088179;28;19913;-52
2022/04/09 09:51:26;;;;;;;;;;;;;;;;;;5090138;28;19912;-52
2022/04/09 09:53:52;;;;;;;;;;;;;;;;;;5086347;28;20074;-51
2022/04/09 09:56:19;;;;;;;;;;;;;;;;;;5087819;28;19920;-52
2022/04/09 09:58:45;;;;;;;;;;;;;;;;;;5090315;28;19908;-54
2022/04/09 10:01:12;;;;;;;;;;;;;;;;;;5088304;28;19916;-53
2022/04/09 10:03:38;;;;;;;;;;;;;;;;;;5087276;28;19924;-53
2022/04/09 10:06:05;;;;;;;;;;;;;;;;;;5089947;28;19915;-55
2022/04/09 10:08:31;;;;;;;;;;;;;;;;;;5089282;28;20358;-53
2022/04/09 10:11:00;;;;;;;;;;;;;;;;;;5089301;28;19915;-54
2022/04/09 10:13:27;;;;;;;;;;;;;;;;;;5087948;28;20351;-56
2022/04/09 10:15:53;;;;;;;;;;;;;;;;;;5092816;28;19919;-50
2022/04/09 10:18:20;;;;;;;;;;;;;;;;;;5091482;28;19908;-57
2022/04/09 10:20:48;;;;;;;;;;;;;;;;;;5092499;28;19915;-52
2022/04/09 10:23:15;;;;;;;;;;;;;;;;;;5092806;28;19908;-48
2022/04/09 10:25:43;;;;;;;;;;;;;;;;;;5088448;28;19916;-47
2022/04/09 10:28:10;;;;;;;;;;;;;;;;;;5091520;28;20283;-48
2022/04/09 10:30:37;;;;;;;;;;;;;;;;;;5090139;28;19908;-49
2022/04/09 10:33:03;;;;;;;;;;;;;;;;;;5094225;28;19965;-51
2022/04/09 10:35:30;;;;;;;;;;;;;;;;;;5091128;28;19908;-55
2022/04/09 10:37:56;;;;;;;;;;;;;;;;;;5094963;28;19977;-43
2022/04/09 10:40:23;;;;;;;;;;;;;;;;;;5094960;28;19961;-47
2022/04/09 10:42:49;;;;;;;;;;;;;;;;;;5095811;28;19916;-48
2022/04/09 10:45:16;;;;;;;;;;;;;;;;;;5089772;28;20003;-48
2022/04/09 10:47:42;;;;;;;;;;;;;;;;;;5094482;28;19961;-46
2022/04/09 10:50:09;;;;;;;;;;;;;;;;;;5094267;28;20007;-44
2022/04/09 10:52:36;;;;;;;;;;;;;;;;;;5094757;28;19979;-43
2022/04/09 10:55:02;;;;;;;;;;;;;;;;;;5088603;28;19955;-46
2022/04/09 10:57:29;;;;;;;;;;;;;;;;;;5093019;28;20389;-52
2022/04/09 10:59:56;;;;;;;;;;;;;;;;;;5094185;28;19977;-47
2022/04/09 11:02:23;;;;;;;;;;;;;;;;;;5094272;28;19958;-53
2022/04/09 11:04:49;;;;;;;;;;;;;;;;;;5088979;28;20297;-51
2022/04/09 11:07:16;;;;;;;;;;;;;;;;;;5094898;28;20279;-50
2022/04/09 11:09:42;;;;;;;;;;;;;;;;;;5092627;28;19927;-54
2022/04/09 11:12:09;;;;;;;;;;;;;;;;;;5092081;28;19976;-55
2022/04/09 11:14:35;;;;;;;;;;;;;;;;;;5095775;28;19979;-54
2022/04/09 11:17:02;;;;;;;;;;;;;;;;;;5093969;28;19908;-48
2022/04/09 11:19:29;;;;;;;;;;;;;;;;;;5095462;28;19999;-54
2022/04/09 11:21:56;;;;;;;;;;;;;;;;;;5095451;28;19915;-49
2022/04/09 11:24:22;;;;;;;;;;;;;;;;;;5095704;28;19915;-47
2022/04/09 11:26:49;;;;;;;;;;;;;;;;;;5095764;28;19912;-57
2022/04/09 11:29:15;;;;;;;;;;;;;;;;;;5095468;28;19916;-50
2022/04/09 11:31:42;;;;;;;;;;;;;;;;;;5095572;28;19912;-53
2022/04/09 11:34:08;;;;;;;;;;;;;;;;;;5095161;28;20011;-55
2022/04/09 11:36:35;;;;;;;;;;;;;;;;;;5095602;28;20309;-49
2022/04/09 11:39:01;;;;;;;;;;;;;;;;;;5094776;28;19973;-53
2022/04/09 11:41:28;;;;;;;;;;;;;;;;;;5095615;28;19915;-45
2022/04/09 11:43:55;;;;;;;;;;;;;;;;;;5094853;28;19927;-47
2022/04/09 11:46:22;;;;;;;;;;;;;;;;;;5095367;28;19912;-49
2022/04/09 11:48:48;;;;;;;;;;;;;;;;;;5095289;28;19953;-50
2022/04/09 11:51:15;;;;;;;;;;;;;;;;;;5093767;28;19908;-42
2022/04/09 11:53:41;;;;;;;;;;;;;;;;;;5093540;28;19969;-46
2022/04/09 11:56:08;;;;;;;;;;;;;;;;;;5093187;28;19915;-52
2022/04/09 11:58:35;;;;;;;;;;;;;;;;;;5093312;28;19953;-44
2022/04/09 12:01:01;;;;;;;;;;;;;;;;;;5085606;28;20375;-52
2022/04/09 12:03:27;;;;;;;;;;;;;;;;;;5094984;28;19918;-52
2022/04/09 12:05:54;;;;;;;;;;;;;;;;;;5094646;28;20363;-50
2022/04/09 12:08:23;;;;;;;;;;;;;;;;;;5094590;28;20377;-46
2022/04/09 12:10:50;;;;;;;;;;;;;;;;;;5094114;28;19914;-49
2022/04/09 12:13:16;;;;;;;;;;;;;;;;;;5094242;28;19989;-47
2022/04/09 12:15:43;;;;;;;;;;;;;;;;;;5093871;28;19908;-49
2022/04/09 12:18:09;;;;;;;;;;;;;;;;;;5092859;28;20351;-43
2022/04/09 12:20:36;;;;;;;;;;;;;;;;;;5091416;28;19908;-48
2022/04/09 12:23:03;;;;;;;;;;;;;;;;;;5094131;28;19991;-46
2022/04/09 12:25:30;;;;;;;;;;;;;;;;;;5094131;28;19908;-47
2022/04/09 12:27:56;;;;;;;;;;;;;;;;;;5094247;28;19912;-42
2022/04/09 12:30:23;;;;;;;;;;;;;;;;;;5093997;28;19908;-44
2022/04/09 12:32:49;;;;;;;;;;;;;;;;;;5094263;28;20331;-45
2022/04/09 12:35:16;;;;;;;;;;;;;;;;;;5094396;28;20278;-46
2022/04/09 12:37:43;;;;;;;;;;;;;;;;;;5094124;28;19937;-41
2022/04/09 12:40:10;;;;;;;;;;;;;;;;;;5094134;28;19909;-59
2022/04/09 12:42:37;;;;;;;;;;;;;;;;;;5094238;28;19916;-48
2022/04/09 12:45:03;;;;;;;;;;;;;;;;;;5093941;28;19908;-49
2022/04/09 12:47:30;;;;;;;;;;;;;;;;;;5094155;28;19908;-48
2022/04/09 12:49:57;;;;;;;;;;;;;;;;;;5110848;28;19915;-53
2022/04/09 12:52:24;;;;;;;;;;;;;;;;;;5113969;28;20365;-54
2022/04/09 12:54:51;;;;;;;;;;;;;;;;;;5113558;28;19916;-51
2022/04/09 12:57:17;;;;;;;;;;;;;;;;;;5114182;28;19912;-52
2022/04/09 12:59:45;;;;;;;;;;;;;;;;;;5114887;28;19964;-45
2022/04/09 13:02:12;;;;;;;;;;;;;;;;;;5114371;28;19952;-51
2022/04/09 13:04:38;;;;;;;;;;;;;;;;;;5107605;28;19928;-54
2022/04/09 13:07:05;;;;;;;;;;;;;;;;;;5093817;28;19908;-54
2022/04/09 13:09:31;;;;;;;;;;;;;;;;;;5093588;28;19908;-57
2022/04/09 13:11:58;;;;;;;;;;;;;;;;;;5093900;28;19912;-53
2022/04/09 13:14:24;;;;;;;;;;;;;;;;;;5113705;28;19922;-51
2022/04/09 13:16:51;;;;;;;;;;;;;;;;;;5114077;27;19908;-56
2022/04/09 13:19:18;;;;;;;;;;;;;;;;;;5113320;28;19969;-47
2022/04/09 13:21:44;;;;;;;;;;;;;;;;;;5113496;28;19916;-47
2022/04/09 13:24:10;;;;;;;;;;;;;;;;;;5113177;28;19907;-47
2022/04/09 13:26:37;;;;;;;;;;;;;;;;;;5113750;28;19908;-52
2022/04/09 13:29:04;;;;;;;;;;;;;;;;;;5112314;28;19908;-52
2022/04/09 13:31:31;;;;;;;;;;;;;;;;;;5113487;28;19908;-49
2022/04/09 13:33:58;;;;;;;;;;;;;;;;;;5113793;28;19916;-47
2022/04/09 13:36:24;;;;;;;;;;;;;;;;;;5113433;28;19981;-48
2022/04/09 13:38:51;;;;;;;;;;;;;;;;;;5113672;28;19908;-49
2022/04/09 13:41:18;;;;;;;;;;;;;;;;;;5113551;28;19994;-51
2022/04/09 13:43:45;;;;;;;;;;;;;;;;;;5113751;28;19908;-51
2022/04/09 13:46:11;;;;;;;;;;;;;;;;;;5113376;28;20278;-50
2022/04/09 13:48:37;;;;;;;;;;;;;;;;;;5113562;28;20002;-54
2022/04/09 13:51:04;;;;;;;;;;;;;;;;;;5113400;28;19908;-53
2022/04/09 13:53:30;;;;;;;;;;;;;;;;;;5113203;28;19942;-55
2022/04/09 13:55:57;;;;;;;;;;;;;;;;;;5113045;28;19908;-50
2022/04/09 13:58:23;;;;;;;;;;;;;;;;;;5113143;28;19908;-50
2022/04/09 14:00:50;;;;;;;;;;;;;;;;;;5113444;28;19908;-54
2022/04/09 14:03:16;;;;;;;;;;;;;;;;;;5113208;28;19916;-53
2022/04/09 14:05:43;;;;;;;;;;;;;;;;;;5112994;28;20288;-50
2022/04/09 14:08:09;;;;;;;;;;;;;;;;;;5115468;28;19921;-56
2022/04/09 14:10:36;;;;;;;;;;;;;;;;;;5116220;28;19915;-52
2022/04/09 14:13:02;;;;;;;;;;;;;;;;;;5117306;28;19916;-53
2022/04/09 14:15:29;;;;;;;;;;;;;;;;;;5115816;28;20235;-49
2022/04/09 14:17:55;;;;;;;;;;;;;;;;;;5117594;28;20060;-54
2022/04/09 14:20:22;;;;;;;;;;;;;;;;;;5117007;28;19914;-55
2022/04/09 14:22:48;;;;;;;;;;;;;;;;;;5117477;28;19912;-52
2022/04/09 14:25:15;;;;;;;;;;;;;;;;;;5116959;28;20374;-55
2022/04/09 14:27:41;;;;;;;;;;;;;;;;;;5117436;28;19908;-56
2022/04/09 14:30:09;;;;;;;;;;;;;;;;;;5117349;28;20003;-50
2022/04/09 14:32:35;;;;;;;;;;;;;;;;;;5117325;28;19915;-54
2022/04/09 14:35:01;;;;;;;;;;;;;;;;;;5116722;28;19916;-54
2022/04/09 14:37:28;;;;;;;;;;;;;;;;;;5117131;28;19939;-55
2022/04/09 14:39:56;;;;;;;;;;;;;;;;;;5115312;28;19907;-53
2022/04/09 14:42:22;;;;;;;;;;;;;;;;;;5116741;28;19998;-54
2022/04/09 14:44:49;;;;;;;;;;;;;;;;;;5117398;28;19919;-54
2022/04/09 14:47:15;;;;;;;;;;;;;;;;;;5116876;28;19991;-53
2022/04/09 14:49:42;;;;;;;;;;;;;;;;;;5116843;27;19919;-55
2022/04/09 14:52:10;;;;;;;;;;;;;;;;;;5116698;28;20451;-40
2022/04/09 14:54:37;;;;;;;;;;;;;;;;;;5116858;27;19916;-40
2022/04/09 14:57:03;;;;;;;;;;;;;;;;;;5116317;28;20358;-39
2022/04/09 14:59:30;;;;;;;;;;;;;;;;;;5116961;28;20366;-45
2022/04/09 15:01:57;;;;;;;;;;;;;;;;;;5117008;28;20304;-39
2022/04/09 15:04:24;;;;;;;;;;;;;;;;;;5116060;28;19923;-48
2022/04/09 15:06:51;;;;;;;;;;;;;;;;;;5116774;28;19931;-40
2022/04/09 15:09:17;;;;;;;;;;;;;;;;;;5117268;28;19995;-45
2022/04/09 15:11:44;;;;;;;;;;;;;;;;;;5116688;28;19907;-40
2022/04/09 15:14:11;;;;;;;;;;;;;;;;;;5116059;28;19916;-40
2022/04/09 15:16:38;;;;;;;;;;;;;;;;;;5116374;27;19915;-40
2022/04/09 15:19:07;;;;;;;;;;;;;;;;;;5116215;28;19998;-39
2022/04/09 15:21:34;;;;;;;;;;;;;;;;;;5116593;28;19990;-43
2022/04/09 15:24:00;;;;;;;;;;;;;;;;;;5116492;28;19908;-45
2022/04/09 15:26:27;;;;;;;;;;;;;;;;;;5116529;28;19907;-43
2022/04/09 15:28:53;;;;;;;;;;;;;;;;;;5115948;28;19908;-43
2022/04/09 15:31:20;;;;;;;;;;;;;;;;;;5116346;28;19945;-43
2022/04/09 15:33:46;;;;;;;;;;;;;;;;;;5115752;28;20366;-52
2022/04/09 15:36:13;;;;;;;;;;;;;;;;;;5115647;28;19931;-47
2022/04/09 15:38:39;;;;;;;;;;;;;;;;;;5115795;28;20002;-43
2022/04/09 15:41:08;;;;;;;;;;;;;;;;;;5116050;28;19908;-51
2022/04/09 15:43:35;;;;;;;;;;;;;;;;;;5116015;28;20340;-43
2022/04/09 15:46:01;;;;;;;;;;;;;;;;;;5115985;28;19912;-44
2022/04/09 15:48:28;;;;;;;;;;;;;;;;;;5099310;28;19977;-41
2022/04/09 15:50:54;;;;;;;;;;;;;;;;;;5095409;28;19908;-42
2022/04/09 15:53:21;;;;;;;;;;;;;;;;;;5095192;28;19916;-51
2022/04/09 15:55:47;;;;;;;;;;;;;;;;;;5095443;28;19912;-55
2022/04/09 15:58:15;;;;;;;;;;;;;;;;;;5095319;28;19908;-51
2022/04/09 16:00:42;;;;;;;;;;;;;;;;;;5095317;28;19948;-54
2022/04/09 16:03:09;;;;;;;;;;;;;;;;;;5095214;28;19912;-52
2022/04/09 16:05:35;;;;;;;;;;;;;;;;;;5095505;28;19921;-54
2022/04/09 16:08:02;;;;;;;;;;;;;;;;;;5115610;28;19953;-54
2022/04/09 16:10:28;;;;;;;;;;;;;;;;;;5115247;28;19915;-54
2022/04/09 16:12:55;;;;;;;;;;;;;;;;;;5115612;28;19908;-42
2022/04/09 16:15:21;;;;;;;;;;;;;;;;;;5115364;28;19914;-45
2022/04/09 16:17:49;;;;;;;;;;;;;;;;;;5115136;28;19907;-43
2022/04/09 16:20:16;;;;;;;;;;;;;;;;;;5115162;28;19914;-50
2022/04/09 16:22:42;;;;;;;;;;;;;;;;;;5115115;28;19908;-43
2022/04/09 16:25:09;;;;;;;;;;;;;;;;;;5115320;28;19947;-49
2022/04/09 16:27:35;;;;;;;;;;;;;;;;;;5115331;28;19998;-49
2022/04/09 16:30:02;;;;;;;;;;;;;;;;;;5113859;28;20266;-52
2022/04/09 16:32:29;;;;;;;;;;;;;;;;;;5114820;28;20372;-56
2022/04/09 16:34:55;;;;;;;;;;;;;;;;;;5114893;28;19916;-47
2022/04/09 16:37:22;;;;;;;;;;;;;;;;;;5114607;28;19908;-46
2022/04/09 16:39:48;;;;;;;;;;;;;;;;;;5114746;28;19950;-50
2022/04/09 16:42:15;;;;;;;;;;;;;;;;;;5113062;28;20269;-56
2022/04/09 16:44:42;;;;;;;;;;;;;;;;;;5114480;28;19946;-52
2022/04/09 16:47:08;;;;;;;;;;;;;;;;;;5114506;27;20315;-43